sensor_id;sensor_type;location;lat;lon;timestamp;P1;durP1;ratioP1;P2;durP2;ratioP2
11267;SDS011;72685;47.474;9.416;2023-11-19T00:01:31;3.03;;;2.73;;
11267;SDS011;72685;47.474;9.416;2023-11-19T00:03:57;2.57;;;2.37;;
11267;SDS011;72685;47.474;9.416;2023-11-19T00:06:23;3.37;;;3.03;;
11267;SDS011;72685;47.474;9.416;2023-11-19T00:08:50;5.57;;;3.10;;
11267;SDS011;72685;47.474;9.416;2023-11-19T00:11:16;2.90;;;2.70;;
11267;SDS011;72685;47.474;9.416;2023-11-19T00:13:41;3.20;;;3.00;;
11267;SDS011;72685;47.474;9.416;2023-11-19T00:16:07;3.43;;;3.13;;
11267;SDS011;72685;47.474;9.416;2023-11-19T00:18:34;2.73;;;2.53;;
11267;SDS011;72685;47.474;9.416;2023-11-19T00:21:01;2.93;;;2.47;;
11267;SDS011;72685;47.474;9.416;2023-11-19T00:23:27;2.77;;;2.67;;
11267;SDS011;72685;47.474;9.416;2023-11-19T00:25:52;2.77;;;2.63;;
11267;SDS011;72685;47.474;9.416;2023-11-19T00:28:18;3.27;;;2.97;;
11267;SDS011;72685;47.474;9.416;2023-11-19T00:30:43;3.07;;;2.50;;
11267;SDS011;72685;47.474;9.416;2023-11-19T00:33:08;2.60;;;2.40;;
11267;SDS011;72685;47.474;9.416;2023-11-19T00:35:34;2.53;;;2.33;;
11267;SDS011;72685;47.474;9.416;2023-11-19T00:37:59;2.63;;;2.43;;
11267;SDS011;72685;47.474;9.416;2023-11-19T00:40:25;2.43;;;2.23;;
11267;SDS011;72685;47.474;9.416;2023-11-19T00:42:51;2.27;;;2.07;;
11267;SDS011;72685;47.474;9.416;2023-11-19T00:45:16;2.70;;;2.50;;
11267;SDS011;72685;47.474;9.416;2023-11-19T00:47:41;2.93;;;2.63;;
11267;SDS011;72685;47.474;9.416;2023-11-19T00:50:07;3.30;;;3.00;;
11267;SDS011;72685;47.474;9.416;2023-11-19T00:52:34;2.57;;;2.37;;
11267;SDS011;72685;47.474;9.416;2023-11-19T00:55:01;3.30;;;3.00;;
11267;SDS011;72685;47.474;9.416;2023-11-19T00:57:26;2.67;;;2.47;;
11267;SDS011;72685;47.474;9.416;2023-11-19T00:59:52;2.93;;;2.63;;
11267;SDS011;72685;47.474;9.416;2023-11-19T01:02:17;4.80;;;3.23;;
11267;SDS011;72685;47.474;9.416;2023-11-19T01:04:43;3.87;;;2.67;;
11267;SDS011;72685;47.474;9.416;2023-11-19T01:07:09;2.40;;;2.20;;
11267;SDS011;72685;47.474;9.416;2023-11-19T01:09:37;2.80;;;2.50;;
11267;SDS011;72685;47.474;9.416;2023-11-19T01:12:03;2.50;;;2.30;;
11267;SDS011;72685;47.474;9.416;2023-11-19T01:14:29;2.90;;;2.70;;
11267;SDS011;72685;47.474;9.416;2023-11-19T01:16:54;3.10;;;2.80;;
11267;SDS011;72685;47.474;9.416;2023-11-19T01:19:23;2.80;;;2.60;;
11267;SDS011;72685;47.474;9.416;2023-11-19T01:21:49;3.40;;;2.87;;
11267;SDS011;72685;47.474;9.416;2023-11-19T01:24:15;4.80;;;3.10;;
11267;SDS011;72685;47.474;9.416;2023-11-19T01:26:41;3.50;;;2.87;;
11267;SDS011;72685;47.474;9.416;2023-11-19T01:29:15;2.60;;;2.40;;
11267;SDS011;72685;47.474;9.416;2023-11-19T01:31:41;3.93;;;3.37;;
11267;SDS011;72685;47.474;9.416;2023-11-19T01:34:07;2.70;;;2.47;;
11267;SDS011;72685;47.474;9.416;2023-11-19T01:36:33;3.57;;;2.43;;
11267;SDS011;72685;47.474;9.416;2023-11-19T01:38:58;2.30;;;2.10;;
11267;SDS011;72685;47.474;9.416;2023-11-19T01:41:23;3.13;;;2.70;;
11267;SDS011;72685;47.474;9.416;2023-11-19T01:43:50;2.43;;;2.23;;
11267;SDS011;72685;47.474;9.416;2023-11-19T01:46:15;2.80;;;2.60;;
11267;SDS011;72685;47.474;9.416;2023-11-19T01:48:41;3.10;;;2.80;;
11267;SDS011;72685;47.474;9.416;2023-11-19T01:51:09;3.70;;;3.40;;
11267;SDS011;72685;47.474;9.416;2023-11-19T01:53:36;2.87;;;2.57;;
11267;SDS011;72685;47.474;9.416;2023-11-19T01:56:03;4.23;;;3.53;;
11267;SDS011;72685;47.474;9.416;2023-11-19T01:58:34;5.17;;;4.67;;
11267;SDS011;72685;47.474;9.416;2023-11-19T02:01:00;4.40;;;4.00;;
11267;SDS011;72685;47.474;9.416;2023-11-19T02:03:28;5.60;;;4.30;;
11267;SDS011;72685;47.474;9.416;2023-11-19T02:05:56;7.00;;;4.60;;
11267;SDS011;72685;47.474;9.416;2023-11-19T02:08:22;6.70;;;4.33;;
11267;SDS011;72685;47.474;9.416;2023-11-19T02:10:47;5.87;;;4.27;;
11267;SDS011;72685;47.474;9.416;2023-11-19T02:13:13;6.10;;;5.23;;
11267;SDS011;72685;47.474;9.416;2023-11-19T02:15:39;6.23;;;4.80;;
11267;SDS011;72685;47.474;9.416;2023-11-19T02:18:25;13.07;;;5.57;;
11267;SDS011;72685;47.474;9.416;2023-11-19T02:20:54;29.00;;;6.63;;
11267;SDS011;72685;47.474;9.416;2023-11-19T02:23:20;6.63;;;5.63;;
11267;SDS011;72685;47.474;9.416;2023-11-19T02:26:32;23.80;;;7.10;;
11267;SDS011;72685;47.474;9.416;2023-11-19T02:28:42;9.50;;;6.73;;
11267;SDS011;72685;47.474;9.416;2023-11-19T02:31:08;13.30;;;6.77;;
11267;SDS011;72685;47.474;9.416;2023-11-19T02:33:35;16.37;;;6.27;;
11267;SDS011;72685;47.474;9.416;2023-11-19T02:36:02;7.87;;;6.17;;
11267;SDS011;72685;47.474;9.416;2023-11-19T02:38:29;34.67;;;9.47;;
11267;SDS011;72685;47.474;9.416;2023-11-19T02:40:56;19.97;;;8.13;;
11267;SDS011;72685;47.474;9.416;2023-11-19T02:43:22;12.03;;;7.87;;
11267;SDS011;72685;47.474;9.416;2023-11-19T02:45:47;21.33;;;7.90;;
11267;SDS011;72685;47.474;9.416;2023-11-19T02:48:13;53.70;;;9.93;;
11267;SDS011;72685;47.474;9.416;2023-11-19T02:50:41;15.07;;;8.20;;
11267;SDS011;72685;47.474;9.416;2023-11-19T02:53:06;30.20;;;8.03;;
11267;SDS011;72685;47.474;9.416;2023-11-19T02:55:32;26.30;;;7.67;;
11267;SDS011;72685;47.474;9.416;2023-11-19T02:58:02;9.30;;;7.50;;
11267;SDS011;72685;47.474;9.416;2023-11-19T03:00:34;11.67;;;7.67;;
11267;SDS011;72685;47.474;9.416;2023-11-19T03:03:02;9.73;;;7.40;;
11267;SDS011;72685;47.474;9.416;2023-11-19T03:05:43;10.63;;;7.37;;
11267;SDS011;72685;47.474;9.416;2023-11-19T03:08:09;6.97;;;5.87;;
11267;SDS011;72685;47.474;9.416;2023-11-19T03:10:35;11.77;;;6.97;;
11267;SDS011;72685;47.474;9.416;2023-11-19T03:13:01;11.60;;;7.93;;
11267;SDS011;72685;47.474;9.416;2023-11-19T03:15:27;10.37;;;7.00;;
11267;SDS011;72685;47.474;9.416;2023-11-19T03:17:52;7.83;;;6.00;;
11267;SDS011;72685;47.474;9.416;2023-11-19T03:20:18;6.70;;;5.50;;
11267;SDS011;72685;47.474;9.416;2023-11-19T03:22:43;7.60;;;5.33;;
11267;SDS011;72685;47.474;9.416;2023-11-19T03:25:09;6.57;;;5.20;;
11267;SDS011;72685;47.474;9.416;2023-11-19T03:27:38;7.97;;;5.37;;
11267;SDS011;72685;47.474;9.416;2023-11-19T03:30:05;7.70;;;5.40;;
11267;SDS011;72685;47.474;9.416;2023-11-19T03:32:31;6.50;;;5.50;;
11267;SDS011;72685;47.474;9.416;2023-11-19T03:34:57;8.93;;;5.50;;
11267;SDS011;72685;47.474;9.416;2023-11-19T03:37:23;5.43;;;4.63;;
11267;SDS011;72685;47.474;9.416;2023-11-19T03:39:49;5.07;;;4.50;;
11267;SDS011;72685;47.474;9.416;2023-11-19T03:42:14;7.27;;;4.80;;
11267;SDS011;72685;47.474;9.416;2023-11-19T03:44:40;5.83;;;4.93;;
11267;SDS011;72685;47.474;9.416;2023-11-19T03:47:05;6.07;;;4.83;;
11267;SDS011;72685;47.474;9.416;2023-11-19T03:49:31;8.17;;;4.83;;
11267;SDS011;72685;47.474;9.416;2023-11-19T03:51:56;5.80;;;4.33;;
11267;SDS011;72685;47.474;9.416;2023-11-19T03:54:21;6.97;;;5.67;;
11267;SDS011;72685;47.474;9.416;2023-11-19T03:56:48;4.97;;;4.47;;
11267;SDS011;72685;47.474;9.416;2023-11-19T03:59:13;6.87;;;4.80;;
11267;SDS011;72685;47.474;9.416;2023-11-19T04:01:40;5.37;;;4.67;;
11267;SDS011;72685;47.474;9.416;2023-11-19T04:04:06;5.80;;;4.40;;
11267;SDS011;72685;47.474;9.416;2023-11-19T04:06:31;4.87;;;4.37;;
11267;SDS011;72685;47.474;9.416;2023-11-19T04:08:57;3.40;;;3.10;;
11267;SDS011;72685;47.474;9.416;2023-11-19T04:11:22;2.40;;;2.30;;
11267;SDS011;72685;47.474;9.416;2023-11-19T04:13:48;1.90;;;1.80;;
11267;SDS011;72685;47.474;9.416;2023-11-19T04:16:13;2.07;;;1.90;;
11267;SDS011;72685;47.474;9.416;2023-11-19T04:18:39;2.07;;;1.87;;
11267;SDS011;72685;47.474;9.416;2023-11-19T04:21:06;1.77;;;1.70;;
11267;SDS011;72685;47.474;9.416;2023-11-19T04:23:34;2.33;;;2.10;;
11267;SDS011;72685;47.474;9.416;2023-11-19T04:26:02;1.70;;;1.70;;
11267;SDS011;72685;47.474;9.416;2023-11-19T04:28:30;1.87;;;1.77;;
11267;SDS011;72685;47.474;9.416;2023-11-19T04:30:55;1.90;;;1.80;;
11267;SDS011;72685;47.474;9.416;2023-11-19T04:33:21;1.77;;;1.67;;
11267;SDS011;72685;47.474;9.416;2023-11-19T04:35:46;1.80;;;1.70;;
11267;SDS011;72685;47.474;9.416;2023-11-19T04:38:12;1.60;;;1.60;;
11267;SDS011;72685;47.474;9.416;2023-11-19T04:40:37;2.20;;;2.00;;
11267;SDS011;72685;47.474;9.416;2023-11-19T04:43:02;1.80;;;1.70;;
11267;SDS011;72685;47.474;9.416;2023-11-19T04:45:28;1.70;;;1.60;;
11267;SDS011;72685;47.474;9.416;2023-11-19T04:47:53;2.40;;;1.80;;
11267;SDS011;72685;47.474;9.416;2023-11-19T04:50:18;1.87;;;1.87;;
11267;SDS011;72685;47.474;9.416;2023-11-19T04:52:44;2.53;;;1.73;;
11267;SDS011;72685;47.474;9.416;2023-11-19T04:55:10;2.20;;;2.10;;
11267;SDS011;72685;47.474;9.416;2023-11-19T04:57:37;1.60;;;1.60;;
11267;SDS011;72685;47.474;9.416;2023-11-19T05:00:03;1.87;;;1.80;;
11267;SDS011;72685;47.474;9.416;2023-11-19T05:02:30;1.80;;;1.70;;
11267;SDS011;72685;47.474;9.416;2023-11-19T05:04:55;1.60;;;1.50;;
11267;SDS011;72685;47.474;9.416;2023-11-19T05:07:21;1.67;;;1.67;;
11267;SDS011;72685;47.474;9.416;2023-11-19T05:09:46;1.50;;;1.50;;
11267;SDS011;72685;47.474;9.416;2023-11-19T05:12:11;3.30;;;3.10;;
11267;SDS011;72685;47.474;9.416;2023-11-19T05:14:37;2.17;;;1.97;;
11267;SDS011;72685;47.474;9.416;2023-11-19T05:17:03;1.80;;;1.70;;
11267;SDS011;72685;47.474;9.416;2023-11-19T05:19:29;1.70;;;1.60;;
11267;SDS011;72685;47.474;9.416;2023-11-19T05:21:54;1.97;;;1.70;;
11267;SDS011;72685;47.474;9.416;2023-11-19T05:24:20;2.00;;;1.90;;
11267;SDS011;72685;47.474;9.416;2023-11-19T05:26:45;1.80;;;1.80;;
11267;SDS011;72685;47.474;9.416;2023-11-19T05:29:10;1.50;;;1.50;;
11267;SDS011;72685;47.474;9.416;2023-11-19T05:31:36;1.60;;;1.60;;
11267;SDS011;72685;47.474;9.416;2023-11-19T05:34:01;1.60;;;1.60;;
11267;SDS011;72685;47.474;9.416;2023-11-19T05:36:26;1.90;;;1.80;;
11267;SDS011;72685;47.474;9.416;2023-11-19T05:38:54;1.73;;;1.70;;
11267;SDS011;72685;47.474;9.416;2023-11-19T05:41:19;1.70;;;1.60;;
11267;SDS011;72685;47.474;9.416;2023-11-19T05:43:44;1.63;;;1.53;;
11267;SDS011;72685;47.474;9.416;2023-11-19T05:46:10;1.90;;;1.80;;
11267;SDS011;72685;47.474;9.416;2023-11-19T05:48:35;1.60;;;1.60;;
11267;SDS011;72685;47.474;9.416;2023-11-19T05:51:00;1.67;;;1.60;;
11267;SDS011;72685;47.474;9.416;2023-11-19T05:53:26;3.27;;;2.97;;
11267;SDS011;72685;47.474;9.416;2023-11-19T05:55:51;2.40;;;2.27;;
11267;SDS011;72685;47.474;9.416;2023-11-19T05:58:29;8.73;;;5.23;;
11267;SDS011;72685;47.474;9.416;2023-11-19T06:00:55;8.03;;;4.67;;
11267;SDS011;72685;47.474;9.416;2023-11-19T06:03:22;7.97;;;4.03;;
11267;SDS011;72685;47.474;9.416;2023-11-19T06:05:48;6.83;;;3.80;;
11267;SDS011;72685;47.474;9.416;2023-11-19T06:08:16;3.67;;;2.10;;
11267;SDS011;72685;47.474;9.416;2023-11-19T06:10:42;3.47;;;2.60;;
11267;SDS011;72685;47.474;9.416;2023-11-19T06:13:07;1.60;;;1.60;;
11267;SDS011;72685;47.474;9.416;2023-11-19T06:15:35;1.50;;;1.50;;
11267;SDS011;72685;47.474;9.416;2023-11-19T06:18:01;1.77;;;1.67;;
11267;SDS011;72685;47.474;9.416;2023-11-19T06:20:28;1.60;;;1.60;;
11267;SDS011;72685;47.474;9.416;2023-11-19T06:22:56;1.63;;;1.53;;
11267;SDS011;72685;47.474;9.416;2023-11-19T06:25:22;1.37;;;1.37;;
11267;SDS011;72685;47.474;9.416;2023-11-19T06:27:49;1.40;;;1.40;;
11267;SDS011;72685;47.474;9.416;2023-11-19T06:30:15;1.50;;;1.50;;
11267;SDS011;72685;47.474;9.416;2023-11-19T06:32:40;1.50;;;1.50;;
11267;SDS011;72685;47.474;9.416;2023-11-19T06:35:05;1.70;;;1.60;;
11267;SDS011;72685;47.474;9.416;2023-11-19T06:37:31;1.50;;;1.50;;
11267;SDS011;72685;47.474;9.416;2023-11-19T06:39:57;1.50;;;1.50;;
11267;SDS011;72685;47.474;9.416;2023-11-19T06:42:22;1.40;;;1.40;;
11267;SDS011;72685;47.474;9.416;2023-11-19T06:44:47;1.33;;;1.33;;
11267;SDS011;72685;47.474;9.416;2023-11-19T06:47:13;1.67;;;1.67;;
11267;SDS011;72685;47.474;9.416;2023-11-19T06:49:38;1.33;;;1.33;;
11267;SDS011;72685;47.474;9.416;2023-11-19T06:52:03;2.43;;;1.70;;
11267;SDS011;72685;47.474;9.416;2023-11-19T06:54:29;2.00;;;1.90;;
11267;SDS011;72685;47.474;9.416;2023-11-19T06:56:55;1.40;;;1.40;;
11267;SDS011;72685;47.474;9.416;2023-11-19T06:59:22;1.37;;;1.37;;
11267;SDS011;72685;47.474;9.416;2023-11-19T07:01:48;1.50;;;1.50;;
11267;SDS011;72685;47.474;9.416;2023-11-19T07:04:13;1.50;;;1.50;;
11267;SDS011;72685;47.474;9.416;2023-11-19T07:06:39;1.80;;;1.50;;
11267;SDS011;72685;47.474;9.416;2023-11-19T07:09:08;1.90;;;1.80;;
11267;SDS011;72685;47.474;9.416;2023-11-19T07:11:39;1.43;;;1.43;;
11267;SDS011;72685;47.474;9.416;2023-11-19T07:14:05;1.50;;;1.50;;
11267;SDS011;72685;47.474;9.416;2023-11-19T07:16:32;1.40;;;1.40;;
11267;SDS011;72685;47.474;9.416;2023-11-19T07:18:59;1.40;;;1.40;;
11267;SDS011;72685;47.474;9.416;2023-11-19T07:21:25;1.80;;;1.70;;
11267;SDS011;72685;47.474;9.416;2023-11-19T07:23:51;2.00;;;1.90;;
11267;SDS011;72685;47.474;9.416;2023-11-19T07:26:17;1.57;;;1.57;;
11267;SDS011;72685;47.474;9.416;2023-11-19T07:28:42;1.93;;;1.83;;
11267;SDS011;72685;47.474;9.416;2023-11-19T07:31:10;1.37;;;1.37;;
11267;SDS011;72685;47.474;9.416;2023-11-19T07:33:35;1.90;;;1.80;;
11267;SDS011;72685;47.474;9.416;2023-11-19T07:36:01;2.37;;;1.50;;
11267;SDS011;72685;47.474;9.416;2023-11-19T07:38:26;1.83;;;1.47;;
11267;SDS011;72685;47.474;9.416;2023-11-19T07:40:52;1.57;;;1.57;;
11267;SDS011;72685;47.474;9.416;2023-11-19T07:43:17;1.83;;;1.83;;
11267;SDS011;72685;47.474;9.416;2023-11-19T07:45:43;1.40;;;1.40;;
11267;SDS011;72685;47.474;9.416;2023-11-19T07:48:11;1.77;;;1.70;;
11267;SDS011;72685;47.474;9.416;2023-11-19T07:50:38;1.53;;;1.43;;
11267;SDS011;72685;47.474;9.416;2023-11-19T07:53:06;1.80;;;1.70;;
11267;SDS011;72685;47.474;9.416;2023-11-19T07:55:32;1.60;;;1.60;;
11267;SDS011;72685;47.474;9.416;2023-11-19T07:57:58;1.50;;;1.50;;
11267;SDS011;72685;47.474;9.416;2023-11-19T08:00:23;1.50;;;1.50;;
11267;SDS011;72685;47.474;9.416;2023-11-19T08:02:49;1.50;;;1.50;;
11267;SDS011;72685;47.474;9.416;2023-11-19T08:05:14;1.77;;;1.67;;
11267;SDS011;72685;47.474;9.416;2023-11-19T08:07:40;1.60;;;1.60;;
11267;SDS011;72685;47.474;9.416;2023-11-19T08:10:05;1.50;;;1.50;;
11267;SDS011;72685;47.474;9.416;2023-11-19T08:12:35;2.00;;;1.90;;
11267;SDS011;72685;47.474;9.416;2023-11-19T08:15:01;3.30;;;1.83;;
11267;SDS011;72685;47.474;9.416;2023-11-19T08:17:30;1.80;;;1.70;;
11267;SDS011;72685;47.474;9.416;2023-11-19T08:19:55;1.60;;;1.60;;
11267;SDS011;72685;47.474;9.416;2023-11-19T08:22:21;1.60;;;1.60;;
11267;SDS011;72685;47.474;9.416;2023-11-19T08:24:47;1.47;;;1.47;;
11267;SDS011;72685;47.474;9.416;2023-11-19T08:27:13;1.70;;;1.70;;
11267;SDS011;72685;47.474;9.416;2023-11-19T08:29:38;2.80;;;1.60;;
11267;SDS011;72685;47.474;9.416;2023-11-19T08:32:04;1.50;;;1.50;;
11267;SDS011;72685;47.474;9.416;2023-11-19T08:34:29;1.60;;;1.60;;
11267;SDS011;72685;47.474;9.416;2023-11-19T08:36:55;1.50;;;1.50;;
11267;SDS011;72685;47.474;9.416;2023-11-19T08:39:21;1.87;;;1.80;;
11267;SDS011;72685;47.474;9.416;2023-11-19T08:41:49;1.37;;;1.37;;
11267;SDS011;72685;47.474;9.416;2023-11-19T08:44:15;2.10;;;1.23;;
11267;SDS011;72685;47.474;9.416;2023-11-19T08:46:48;1.60;;;1.60;;
11267;SDS011;72685;47.474;9.416;2023-11-19T08:49:14;1.80;;;1.70;;
11267;SDS011;72685;47.474;9.416;2023-11-19T08:51:39;1.87;;;1.70;;
11267;SDS011;72685;47.474;9.416;2023-11-19T08:54:04;1.53;;;1.43;;
11267;SDS011;72685;47.474;9.416;2023-11-19T08:56:30;1.50;;;1.47;;
11267;SDS011;72685;47.474;9.416;2023-11-19T08:58:58;1.67;;;1.60;;
11267;SDS011;72685;47.474;9.416;2023-11-19T09:01:23;1.70;;;1.60;;
11267;SDS011;72685;47.474;9.416;2023-11-19T09:03:49;1.50;;;1.50;;
11267;SDS011;72685;47.474;9.416;2023-11-19T09:06:15;1.50;;;1.50;;
11267;SDS011;72685;47.474;9.416;2023-11-19T09:08:41;1.47;;;1.47;;
11267;SDS011;72685;47.474;9.416;2023-11-19T09:11:07;1.40;;;1.40;;
11267;SDS011;72685;47.474;9.416;2023-11-19T09:13:34;1.60;;;1.50;;
11267;SDS011;72685;47.474;9.416;2023-11-19T09:16:00;1.70;;;1.60;;
11267;SDS011;72685;47.474;9.416;2023-11-19T09:18:28;1.50;;;1.40;;
11267;SDS011;72685;47.474;9.416;2023-11-19T09:20:54;1.50;;;1.50;;
11267;SDS011;72685;47.474;9.416;2023-11-19T09:23:20;1.50;;;1.50;;
11267;SDS011;72685;47.474;9.416;2023-11-19T09:25:45;1.53;;;1.53;;
11267;SDS011;72685;47.474;9.416;2023-11-19T09:28:10;1.50;;;1.50;;
11267;SDS011;72685;47.474;9.416;2023-11-19T09:30:36;1.73;;;1.70;;
11267;SDS011;72685;47.474;9.416;2023-11-19T09:33:01;1.60;;;1.60;;
11267;SDS011;72685;47.474;9.416;2023-11-19T09:35:27;1.60;;;1.60;;
11267;SDS011;72685;47.474;9.416;2023-11-19T09:37:52;1.50;;;1.50;;
11267;SDS011;72685;47.474;9.416;2023-11-19T09:40:18;1.50;;;1.40;;
11267;SDS011;72685;47.474;9.416;2023-11-19T09:42:44;1.70;;;1.60;;
11267;SDS011;72685;47.474;9.416;2023-11-19T09:45:13;1.90;;;1.80;;
11267;SDS011;72685;47.474;9.416;2023-11-19T09:47:44;1.60;;;1.60;;
11267;SDS011;72685;47.474;9.416;2023-11-19T09:50:17;1.90;;;1.77;;
11267;SDS011;72685;47.474;9.416;2023-11-19T09:52:44;1.57;;;1.57;;
11267;SDS011;72685;47.474;9.416;2023-11-19T09:55:10;2.70;;;1.90;;
11267;SDS011;72685;47.474;9.416;2023-11-19T09:57:35;1.73;;;1.63;;
11267;SDS011;72685;47.474;9.416;2023-11-19T10:00:07;2.67;;;1.70;;
11267;SDS011;72685;47.474;9.416;2023-11-19T10:02:35;1.60;;;1.60;;
11267;SDS011;72685;47.474;9.416;2023-11-19T10:05:03;1.90;;;1.80;;
11267;SDS011;72685;47.474;9.416;2023-11-19T10:07:31;1.90;;;1.80;;
11267;SDS011;72685;47.474;9.416;2023-11-19T10:09:58;1.77;;;1.70;;
11267;SDS011;72685;47.474;9.416;2023-11-19T10:12:26;1.50;;;1.50;;
11267;SDS011;72685;47.474;9.416;2023-11-19T10:14:51;1.70;;;1.60;;
11267;SDS011;72685;47.474;9.416;2023-11-19T10:17:18;4.73;;;1.73;;
11267;SDS011;72685;47.474;9.416;2023-11-19T10:19:44;3.27;;;1.83;;
11267;SDS011;72685;47.474;9.416;2023-11-19T10:22:09;1.90;;;1.67;;
11267;SDS011;72685;47.474;9.416;2023-11-19T10:24:36;1.90;;;1.80;;
11267;SDS011;72685;47.474;9.416;2023-11-19T10:27:06;2.03;;;1.90;;
11267;SDS011;72685;47.474;9.416;2023-11-19T10:29:35;2.00;;;1.90;;
11267;SDS011;72685;47.474;9.416;2023-11-19T10:32:02;4.17;;;1.70;;
11267;SDS011;72685;47.474;9.416;2023-11-19T10:34:28;2.00;;;1.90;;
11267;SDS011;72685;47.474;9.416;2023-11-19T10:36:55;1.87;;;1.77;;
11267;SDS011;72685;47.474;9.416;2023-11-19T10:39:20;2.07;;;1.60;;
11267;SDS011;72685;47.474;9.416;2023-11-19T10:41:46;1.63;;;1.63;;
11267;SDS011;72685;47.474;9.416;2023-11-19T10:44:12;2.83;;;1.60;;
11267;SDS011;72685;47.474;9.416;2023-11-19T10:46:38;2.53;;;2.33;;
11267;SDS011;72685;47.474;9.416;2023-11-19T10:49:07;2.07;;;1.97;;
11267;SDS011;72685;47.474;9.416;2023-11-19T10:51:33;1.70;;;1.60;;
11267;SDS011;72685;47.474;9.416;2023-11-19T10:54:01;1.90;;;1.80;;
11267;SDS011;72685;47.474;9.416;2023-11-19T10:56:31;1.80;;;1.60;;
11267;SDS011;72685;47.474;9.416;2023-11-19T10:58:58;1.67;;;1.60;;
11267;SDS011;72685;47.474;9.416;2023-11-19T11:01:37;2.43;;;1.60;;
11267;SDS011;72685;47.474;9.416;2023-11-19T11:04:19;1.83;;;1.80;;
11267;SDS011;72685;47.474;9.416;2023-11-19T11:06:48;1.77;;;1.70;;
11267;SDS011;72685;47.474;9.416;2023-11-19T11:09:14;1.53;;;1.53;;
11267;SDS011;72685;47.474;9.416;2023-11-19T11:11:40;1.57;;;1.53;;
11267;SDS011;72685;47.474;9.416;2023-11-19T11:14:09;1.60;;;1.60;;
11267;SDS011;72685;47.474;9.416;2023-11-19T11:16:37;1.97;;;1.87;;
11267;SDS011;72685;47.474;9.416;2023-11-19T11:19:07;1.80;;;1.70;;
11267;SDS011;72685;47.474;9.416;2023-11-19T11:21:34;1.63;;;1.63;;
11267;SDS011;72685;47.474;9.416;2023-11-19T11:35:36;1.43;;;1.43;;
11267;SDS011;72685;47.474;9.416;2023-11-19T11:38:42;2.00;;;1.77;;
11267;SDS011;72685;47.474;9.416;2023-11-19T11:41:23;1.70;;;1.60;;
11267;SDS011;72685;47.474;9.416;2023-11-19T11:49:04;1.50;;;1.50;;
11267;SDS011;72685;47.474;9.416;2023-11-19T11:54:11;1.60;;;1.57;;
11267;SDS011;72685;47.474;9.416;2023-11-19T11:59:36;1.30;;;1.30;;
11267;SDS011;72685;47.474;9.416;2023-11-19T12:02:03;1.57;;;1.47;;
11267;SDS011;72685;47.474;9.416;2023-11-19T12:04:29;1.40;;;1.40;;
11267;SDS011;72685;47.474;9.416;2023-11-19T12:09:40;1.53;;;1.53;;
11267;SDS011;72685;47.474;9.416;2023-11-19T12:20:02;3.10;;;1.50;;
11267;SDS011;72685;47.474;9.416;2023-11-19T12:22:30;1.90;;;1.50;;
11267;SDS011;72685;47.474;9.416;2023-11-19T12:24:56;1.40;;;1.30;;
11267;SDS011;72685;47.474;9.416;2023-11-19T12:27:21;1.60;;;1.60;;
11267;SDS011;72685;47.474;9.416;2023-11-19T12:29:47;1.63;;;1.53;;
11267;SDS011;72685;47.474;9.416;2023-11-19T12:32:16;1.70;;;1.60;;
11267;SDS011;72685;47.474;9.416;2023-11-19T12:34:41;1.70;;;1.60;;
11267;SDS011;72685;47.474;9.416;2023-11-19T12:37:07;1.97;;;1.87;;
11267;SDS011;72685;47.474;9.416;2023-11-19T12:39:35;1.50;;;1.50;;
11267;SDS011;72685;47.474;9.416;2023-11-19T12:42:00;1.40;;;1.40;;
11267;SDS011;72685;47.474;9.416;2023-11-19T12:44:27;1.70;;;1.60;;
11267;SDS011;72685;47.474;9.416;2023-11-19T12:47:26;1.40;;;1.40;;
11267;SDS011;72685;47.474;9.416;2023-11-19T12:49:55;1.40;;;1.40;;
11267;SDS011;72685;47.474;9.416;2023-11-19T12:52:21;1.43;;;1.43;;
11267;SDS011;72685;47.474;9.416;2023-11-19T12:54:48;1.60;;;1.60;;
11267;SDS011;72685;47.474;9.416;2023-11-19T12:57:13;1.67;;;1.50;;
11267;SDS011;72685;47.474;9.416;2023-11-19T12:59:39;1.60;;;1.60;;
11267;SDS011;72685;47.474;9.416;2023-11-19T13:02:04;1.83;;;1.73;;
11267;SDS011;72685;47.474;9.416;2023-11-19T13:04:31;1.43;;;1.43;;
11267;SDS011;72685;47.474;9.416;2023-11-19T13:06:57;1.40;;;1.40;;
11267;SDS011;72685;47.474;9.416;2023-11-19T13:09:26;1.83;;;1.67;;
11267;SDS011;72685;47.474;9.416;2023-11-19T13:11:55;1.77;;;1.67;;
11267;SDS011;72685;47.474;9.416;2023-11-19T13:14:22;1.83;;;1.73;;
11267;SDS011;72685;47.474;9.416;2023-11-19T13:16:48;1.43;;;1.33;;
11267;SDS011;72685;47.474;9.416;2023-11-19T13:19:14;2.33;;;1.50;;
11267;SDS011;72685;47.474;9.416;2023-11-19T13:21:41;1.60;;;1.50;;
11267;SDS011;72685;47.474;9.416;2023-11-19T13:24:07;1.70;;;1.70;;
11267;SDS011;72685;47.474;9.416;2023-11-19T13:26:32;1.50;;;1.50;;
11267;SDS011;72685;47.474;9.416;2023-11-19T13:28:58;1.60;;;1.50;;
11267;SDS011;72685;47.474;9.416;2023-11-19T13:31:23;1.40;;;1.40;;
11267;SDS011;72685;47.474;9.416;2023-11-19T13:33:49;1.50;;;1.50;;
11267;SDS011;72685;47.474;9.416;2023-11-19T13:36:14;1.93;;;1.83;;
11267;SDS011;72685;47.474;9.416;2023-11-19T13:38:40;1.83;;;1.73;;
11267;SDS011;72685;47.474;9.416;2023-11-19T13:41:09;1.97;;;1.87;;
11267;SDS011;72685;47.474;9.416;2023-11-19T13:43:36;1.70;;;1.60;;
11267;SDS011;72685;47.474;9.416;2023-11-19T13:46:02;1.80;;;1.70;;
11267;SDS011;72685;47.474;9.416;2023-11-19T13:48:28;1.73;;;1.63;;
11267;SDS011;72685;47.474;9.416;2023-11-19T13:50:54;2.10;;;1.90;;
11267;SDS011;72685;47.474;9.416;2023-11-19T13:53:20;2.00;;;1.90;;
11267;SDS011;72685;47.474;9.416;2023-11-19T13:55:46;1.47;;;1.47;;
11267;SDS011;72685;47.474;9.416;2023-11-19T13:58:12;1.50;;;1.50;;
11267;SDS011;72685;47.474;9.416;2023-11-19T14:00:38;4.37;;;1.60;;
11267;SDS011;72685;47.474;9.416;2023-11-19T14:03:03;1.60;;;1.60;;
11267;SDS011;72685;47.474;9.416;2023-11-19T14:05:29;1.67;;;1.57;;
11267;SDS011;72685;47.474;9.416;2023-11-19T14:07:55;1.90;;;1.80;;
11267;SDS011;72685;47.474;9.416;2023-11-19T14:10:21;1.50;;;1.50;;
11267;SDS011;72685;47.474;9.416;2023-11-19T14:12:47;1.80;;;1.50;;
11267;SDS011;72685;47.474;9.416;2023-11-19T14:15:12;1.63;;;1.63;;
11267;SDS011;72685;47.474;9.416;2023-11-19T14:17:38;1.83;;;1.73;;
11267;SDS011;72685;47.474;9.416;2023-11-19T14:20:04;1.63;;;1.53;;
11267;SDS011;72685;47.474;9.416;2023-11-19T14:22:40;3.73;;;1.33;;
11267;SDS011;72685;47.474;9.416;2023-11-19T14:25:08;1.60;;;1.60;;
11267;SDS011;72685;47.474;9.416;2023-11-19T14:27:39;1.60;;;1.50;;
11267;SDS011;72685;47.474;9.416;2023-11-19T14:30:06;1.87;;;1.77;;
11267;SDS011;72685;47.474;9.416;2023-11-19T14:32:33;2.00;;;1.90;;
11267;SDS011;72685;47.474;9.416;2023-11-19T14:35:00;1.40;;;1.40;;
11267;SDS011;72685;47.474;9.416;2023-11-19T14:37:26;1.67;;;1.57;;
11267;SDS011;72685;47.474;9.416;2023-11-19T14:39:51;1.30;;;1.30;;
11267;SDS011;72685;47.474;9.416;2023-11-19T14:42:17;1.63;;;1.63;;
11267;SDS011;72685;47.474;9.416;2023-11-19T14:44:42;1.50;;;1.50;;
11267;SDS011;72685;47.474;9.416;2023-11-19T14:47:08;1.73;;;1.63;;
11267;SDS011;72685;47.474;9.416;2023-11-19T14:49:34;2.10;;;1.90;;
11267;SDS011;72685;47.474;9.416;2023-11-19T14:52:02;2.30;;;1.50;;
11267;SDS011;72685;47.474;9.416;2023-11-19T14:54:28;1.80;;;1.70;;
11267;SDS011;72685;47.474;9.416;2023-11-19T14:56:53;1.80;;;1.70;;
11267;SDS011;72685;47.474;9.416;2023-11-19T14:59:19;1.57;;;1.57;;
11267;SDS011;72685;47.474;9.416;2023-11-19T15:01:44;1.77;;;1.67;;
11267;SDS011;72685;47.474;9.416;2023-11-19T15:04:10;1.67;;;1.60;;
11267;SDS011;72685;47.474;9.416;2023-11-19T15:06:36;4.63;;;1.50;;
11267;SDS011;72685;47.474;9.416;2023-11-19T15:09:02;1.43;;;1.43;;
11267;SDS011;72685;47.474;9.416;2023-11-19T15:11:28;3.90;;;1.73;;
11267;SDS011;72685;47.474;9.416;2023-11-19T15:13:54;1.40;;;1.40;;
11267;SDS011;72685;47.474;9.416;2023-11-19T15:16:19;1.73;;;1.63;;
11267;SDS011;72685;47.474;9.416;2023-11-19T15:18:50;1.70;;;1.70;;